FDX529 KMEM-KDEN
Flight info
| Callsign | FDX529 |
|---|---|
| Flight time | 2h 13m |
| Altitude | 26000 |
| Route | ZUMIT5 FOXOM RZC PER GCK KIISS CLASH5 |
| Aircraft | A306/H-SDE3FGHIRWY/LB1 |
Departure
| Time | 2026-05-05 05:15 |
|---|---|
| Airport | Memphis International Airport (KMEM) |
Arrival
| Time | 2026-05-05 07:28 |
|---|---|
| Airport | Denver International Airport (KDEN) |
| Time | Latitude | Longitude | Altitude | Speed | Heading |
|---|---|---|---|---|---|
| 2026-05-05 04:52 | 35.06272 | -89.97710 | 337 ft | 0 kts | 90° |
| 2026-05-05 05:06 | 35.06272 | -89.97711 | 337 ft | 1 kts | 90° |
| 2026-05-05 05:07 | 35.06272 | -89.97739 | 335 ft | 4 kts | 90° |
| 2026-05-05 05:07 | 35.06272 | -89.97766 | 333 ft | 4 kts | 110° |
| 2026-05-05 05:07 | 35.06285 | -89.97785 | 337 ft | 4 kts | 166° |
| 2026-05-05 05:07 | 35.06304 | -89.97789 | 331 ft | 0 kts | 179° |
| 2026-05-05 05:11 | 35.06286 | -89.97788 | 337 ft | 7 kts | 178° |
| 2026-05-05 05:12 | 35.06201 | -89.97786 | 334 ft | 17 kts | 181° |
| 2026-05-05 05:12 | 35.06067 | -89.97785 | 334 ft | 21 kts | 178° |
| 2026-05-05 05:12 | 35.05906 | -89.97785 | 332 ft | 25 kts | 178° |
| 2026-05-05 05:12 | 35.05722 | -89.97786 | 333 ft | 28 kts | 180° |
| 2026-05-05 05:13 | 35.05531 | -89.97786 | 333 ft | 26 kts | 176° |
| 2026-05-05 05:13 | 35.05454 | -89.97710 | 329 ft | 6 kts | 92° |
| 2026-05-05 05:13 | 35.05437 | -89.97639 | 326 ft | 11 kts | 126° |
| 2026-05-05 05:13 | 35.05385 | -89.97617 | 328 ft | 0 kts | 176° |
| 2026-05-05 05:14 | 35.05383 | -89.97616 | 329 ft | 3 kts | 175° |
| 2026-05-05 05:14 | 35.05233 | -89.97610 | 326 ft | 52 kts | 177° |
| 2026-05-05 05:14 | 35.04657 | -89.97599 | 327 ft | 111 kts | 180° |
| 2026-05-05 05:14 | 35.03703 | -89.97573 | 328 ft | 163 kts | 176° |
| 2026-05-05 05:15 | 35.02451 | -89.97490 | 645 ft | 191 kts | 175° |
| 2026-05-05 05:15 | 35.01063 | -89.97437 | 1176 ft | 205 kts | 182° |
| 2026-05-05 05:15 | 34.99670 | -89.97333 | 2191 ft | 199 kts | 175° |
| 2026-05-05 05:15 | 34.98343 | -89.96898 | 3154 ft | 192 kts | 172° |
| 2026-05-05 05:16 | 34.97066 | -89.96826 | 3980 ft | 184 kts | 202° |
| 2026-05-05 05:16 | 34.96026 | -89.97849 | 4053 ft | 216 kts | 238° |
| 2026-05-05 05:16 | 34.95304 | -89.99494 | 4737 ft | 213 kts | 242° |
| 2026-05-05 05:16 | 34.94441 | -90.01015 | 5267 ft | 233 kts | 234° |
| 2026-05-05 05:17 | 34.93701 | -90.02885 | 5384 ft | 257 kts | 264° |
| 2026-05-05 05:17 | 34.93818 | -90.05084 | 6141 ft | 260 kts | 277° |
| 2026-05-05 05:17 | 34.94012 | -90.07286 | 7003 ft | 262 kts | 275° |
| 2026-05-05 05:17 | 34.94187 | -90.09516 | 7788 ft | 267 kts | 277° |
| 2026-05-05 05:18 | 34.94652 | -90.11699 | 8526 ft | 272 kts | 292° |
| 2026-05-05 05:18 | 34.95452 | -90.13816 | 9319 ft | 277 kts | 296° |
| 2026-05-05 05:18 | 34.96313 | -90.15946 | 10057 ft | 281 kts | 296° |
| 2026-05-05 05:18 | 34.97197 | -90.18136 | 10498 ft | 297 kts | 296° |
| 2026-05-05 05:19 | 34.98099 | -90.20485 | 10794 ft | 315 kts | 294° |
| 2026-05-05 05:19 | 34.98985 | -90.23010 | 11080 ft | 331 kts | 293° |
| 2026-05-05 05:19 | 34.99888 | -90.25632 | 11363 ft | 347 kts | 293° |
| 2026-05-05 05:19 | 35.00842 | -90.28404 | 11640 ft | 362 kts | 293° |
| 2026-05-05 05:20 | 35.01830 | -90.31276 | 12036 ft | 372 kts | 293° |
| 2026-05-05 05:20 | 35.02852 | -90.34202 | 12600 ft | 376 kts | 295° |
| 2026-05-05 05:20 | 35.03960 | -90.37119 | 13216 ft | 379 kts | 296° |
| 2026-05-05 05:20 | 35.05090 | -90.40035 | 13836 ft | 381 kts | 296° |
| 2026-05-05 05:21 | 35.06227 | -90.42973 | 14415 ft | 383 kts | 295° |
| 2026-05-05 05:21 | 35.07366 | -90.45924 | 15003 ft | 385 kts | 295° |
| 2026-05-05 05:21 | 35.08508 | -90.48885 | 15599 ft | 387 kts | 295° |
| 2026-05-05 05:21 | 35.09654 | -90.51859 | 16208 ft | 388 kts | 295° |
| 2026-05-05 05:22 | 35.10807 | -90.54855 | 16797 ft | 390 kts | 295° |
| 2026-05-05 05:22 | 35.11953 | -90.57835 | 17356 ft | 392 kts | 295° |
| 2026-05-05 05:22 | 35.13116 | -90.60860 | 17927 ft | 394 kts | 295° |
| 2026-05-05 05:22 | 35.14283 | -90.63900 | 18440 ft | 396 kts | 295° |
| 2026-05-05 05:23 | 35.15456 | -90.66956 | 18897 ft | 398 kts | 295° |
| 2026-05-05 05:23 | 35.16635 | -90.70033 | 19354 ft | 400 kts | 294° |
| 2026-05-05 05:23 | 35.17660 | -90.73206 | 19795 ft | 402 kts | 286° |
| 2026-05-05 05:23 | 35.18132 | -90.76569 | 20260 ft | 404 kts | 275° |
| 2026-05-05 05:24 | 35.18219 | -90.80015 | 20693 ft | 406 kts | 272° |
| 2026-05-05 05:24 | 35.18254 | -90.83434 | 21123 ft | 408 kts | 272° |
| 2026-05-05 05:24 | 35.18295 | -90.86919 | 21564 ft | 410 kts | 272° |
| 2026-05-05 05:24 | 35.18342 | -90.90408 | 21987 ft | 412 kts | 272° |
| 2026-05-05 05:25 | 35.18392 | -90.93921 | 22415 ft | 413 kts | 272° |
| 2026-05-05 05:25 | 35.18453 | -90.97431 | 22804 ft | 415 kts | 274° |
| 2026-05-05 05:25 | 35.18790 | -91.00949 | 23192 ft | 416 kts | 282° |
| 2026-05-05 05:25 | 35.19640 | -91.04328 | 23571 ft | 417 kts | 290° |
| 2026-05-05 05:26 | 35.20726 | -91.07634 | 23901 ft | 419 kts | 292° |
| 2026-05-05 05:26 | 35.21900 | -91.10901 | 24250 ft | 419 kts | 294° |
| 2026-05-05 05:26 | 35.23105 | -91.14156 | 24582 ft | 420 kts | 294° |
| 2026-05-05 05:26 | 35.24298 | -91.17372 | 24918 ft | 420 kts | 294° |
| 2026-05-05 05:27 | 35.25495 | -91.20634 | 25239 ft | 421 kts | 294° |
| 2026-05-05 05:27 | 35.26683 | -91.23917 | 25537 ft | 422 kts | 293° |
| 2026-05-05 05:27 | 35.29036 | -91.30507 | 26109 ft | 422 kts | 293° |
| 2026-05-05 05:28 | 35.30209 | -91.33815 | 26330 ft | 422 kts | 293° |
| 2026-05-05 05:28 | 35.31379 | -91.37121 | 26525 ft | 423 kts | 293° |
| 2026-05-05 05:28 | 35.32551 | -91.40434 | 26710 ft | 424 kts | 293° |
| 2026-05-05 05:28 | 35.33709 | -91.43710 | 26966 ft | 423 kts | 293° |
| 2026-05-05 05:29 | 35.34872 | -91.47005 | 27311 ft | 420 kts | 293° |
| 2026-05-05 05:29 | 35.36033 | -91.50292 | 27660 ft | 418 kts | 293° |
| 2026-05-05 05:29 | 35.36795 | -91.52452 | 27868 ft | 416 kts | 293° |
| 2026-05-05 05:29 | 35.37943 | -91.55706 | 28201 ft | 414 kts | 293° |
| 2026-05-05 05:30 | 35.39081 | -91.58936 | 28570 ft | 411 kts | 293° |
| 2026-05-05 05:30 | 35.40213 | -91.62151 | 28907 ft | 409 kts | 293° |
| 2026-05-05 05:30 | 35.41702 | -91.66387 | 29371 ft | 406 kts | 293° |
| 2026-05-05 05:30 | 35.42456 | -91.68536 | 29596 ft | 405 kts | 293° |
| 2026-05-05 05:31 | 35.43553 | -91.71664 | 29968 ft | 402 kts | 293° |
| 2026-05-05 05:31 | 35.44655 | -91.74809 | 30231 ft | 401 kts | 293° |
| 2026-05-05 05:31 | 35.45754 | -91.77950 | 30466 ft | 400 kts | 293° |
| 2026-05-05 05:31 | 35.46850 | -91.81081 | 30710 ft | 398 kts | 293° |
| 2026-05-05 05:32 | 35.47941 | -91.84199 | 30979 ft | 396 kts | 293° |
| 2026-05-05 05:32 | 35.49023 | -91.87297 | 31233 ft | 395 kts | 293° |
| 2026-05-05 05:32 | 35.50101 | -91.90387 | 31494 ft | 393 kts | 293° |
| 2026-05-05 05:32 | 35.51179 | -91.93484 | 31758 ft | 392 kts | 293° |
| 2026-05-05 05:33 | 35.52252 | -91.96567 | 31861 ft | 391 kts | 293° |
| 2026-05-05 05:33 | 35.53294 | -91.99564 | 31860 ft | 383 kts | 293° |
| 2026-05-05 05:33 | 35.55367 | -92.05538 | 31865 ft | 377 kts | 293° |
| 2026-05-05 05:34 | 35.57419 | -92.11458 | 31862 ft | 377 kts | 293° |
| 2026-05-05 05:34 | 35.59471 | -92.17391 | 31860 ft | 377 kts | 293° |
| 2026-05-05 05:35 | 35.61515 | -92.23313 | 31862 ft | 376 kts | 293° |
| 2026-05-05 05:35 | 35.63545 | -92.29203 | 31862 ft | 376 kts | 293° |
| 2026-05-05 05:36 | 35.65582 | -92.35123 | 31861 ft | 375 kts | 293° |
| 2026-05-05 05:36 | 35.67614 | -92.41048 | 31864 ft | 375 kts | 293° |
| 2026-05-05 05:37 | 35.69640 | -92.46966 | 31862 ft | 374 kts | 293° |
| 2026-05-05 05:37 | 35.71649 | -92.52837 | 31869 ft | 374 kts | 293° |
| 2026-05-05 05:38 | 35.73665 | -92.58744 | 31859 ft | 373 kts | 293° |
| 2026-05-05 05:38 | 35.75677 | -92.64649 | 31857 ft | 373 kts | 293° |
| 2026-05-05 05:39 | 35.77681 | -92.70548 | 31842 ft | 373 kts | 293° |
| 2026-05-05 05:39 | 35.79669 | -92.76410 | 31837 ft | 372 kts | 293° |
| 2026-05-05 05:40 | 35.81667 | -92.82304 | 31829 ft | 372 kts | 293° |
| 2026-05-05 05:40 | 35.83658 | -92.88198 | 31830 ft | 372 kts | 293° |
| 2026-05-05 05:41 | 35.85645 | -92.94096 | 31825 ft | 372 kts | 293° |
| 2026-05-05 05:41 | 35.87630 | -92.99990 | 31820 ft | 372 kts | 293° |
| 2026-05-05 05:42 | 35.89603 | -93.05859 | 31816 ft | 372 kts | 293° |
| 2026-05-05 05:42 | 35.91577 | -93.11750 | 31816 ft | 372 kts | 293° |
| 2026-05-05 05:43 | 35.93550 | -93.17644 | 31820 ft | 371 kts | 293° |
| 2026-05-05 05:43 | 35.95513 | -93.23516 | 31820 ft | 370 kts | 292° |
| 2026-05-05 05:44 | 35.97475 | -93.29400 | 31817 ft | 369 kts | 292° |
| 2026-05-05 05:44 | 35.99417 | -93.35243 | 31817 ft | 369 kts | 292° |
| 2026-05-05 05:45 | 36.01370 | -93.41118 | 31813 ft | 368 kts | 292° |
| 2026-05-05 05:45 | 36.03297 | -93.46930 | 31808 ft | 368 kts | 292° |
| 2026-05-05 05:46 | 36.05234 | -93.52790 | 31803 ft | 368 kts | 292° |
| 2026-05-05 05:46 | 36.07171 | -93.58658 | 31793 ft | 368 kts | 292° |
| 2026-05-05 05:47 | 36.09101 | -93.64518 | 31784 ft | 368 kts | 292° |
| 2026-05-05 05:47 | 36.11019 | -93.70352 | 31793 ft | 368 kts | 292° |
| 2026-05-05 05:48 | 36.12941 | -93.76206 | 31787 ft | 367 kts | 292° |
| 2026-05-05 05:48 | 36.14869 | -93.82093 | 31757 ft | 367 kts | 292° |
| 2026-05-05 05:49 | 36.16738 | -93.87814 | 31794 ft | 356 kts | 292° |
| 2026-05-05 05:49 | 36.18588 | -93.93481 | 31799 ft | 355 kts | 292° |
| 2026-05-05 05:50 | 36.20436 | -93.99153 | 31804 ft | 356 kts | 292° |
| 2026-05-05 05:50 | 36.22288 | -94.04849 | 31811 ft | 356 kts | 292° |
| 2026-05-05 05:51 | 36.24130 | -94.10559 | 31817 ft | 357 kts | 290° |
| 2026-05-05 05:51 | 36.25429 | -94.16492 | 31838 ft | 359 kts | 285° |
| 2026-05-05 05:52 | 36.26527 | -94.22564 | 31832 ft | 361 kts | 284° |
| 2026-05-05 05:52 | 36.27590 | -94.28642 | 31828 ft | 361 kts | 284° |
| 2026-05-05 05:53 | 36.28652 | -94.34704 | 31830 ft | 362 kts | 284° |
| 2026-05-05 05:53 | 36.29725 | -94.40816 | 31831 ft | 363 kts | 284° |
| 2026-05-05 05:54 | 36.30798 | -94.46943 | 31802 ft | 364 kts | 284° |
| 2026-05-05 05:54 | 36.31874 | -94.53084 | 31800 ft | 365 kts | 284° |
| 2026-05-05 05:55 | 36.32943 | -94.59204 | 31792 ft | 366 kts | 283° |
| 2026-05-05 05:55 | 36.34018 | -94.65385 | 31786 ft | 367 kts | 283° |
| 2026-05-05 05:56 | 36.35091 | -94.71587 | 31778 ft | 368 kts | 283° |
| 2026-05-05 05:56 | 36.36167 | -94.77815 | 31744 ft | 369 kts | 283° |
| 2026-05-05 05:57 | 36.37233 | -94.84014 | 31746 ft | 371 kts | 283° |
| 2026-05-05 05:57 | 36.38311 | -94.90304 | 31749 ft | 372 kts | 283° |
| 2026-05-05 05:58 | 36.39388 | -94.96600 | 31750 ft | 373 kts | 282° |
| 2026-05-05 05:58 | 36.40468 | -95.02930 | 31737 ft | 375 kts | 282° |
| 2026-05-05 05:59 | 36.41548 | -95.09284 | 31740 ft | 377 kts | 282° |
| 2026-05-05 05:59 | 36.42620 | -95.15630 | 31732 ft | 378 kts | 282° |
| 2026-05-05 06:00 | 36.43698 | -95.22027 | 31731 ft | 377 kts | 282° |
| 2026-05-05 06:00 | 36.44769 | -95.28400 | 31731 ft | 377 kts | 282° |
| 2026-05-05 06:01 | 36.45838 | -95.34776 | 31727 ft | 377 kts | 282° |
| 2026-05-05 06:01 | 36.46904 | -95.41158 | 31726 ft | 377 kts | 282° |
| 2026-05-05 06:02 | 36.47956 | -95.47478 | 31723 ft | 377 kts | 282° |
| 2026-05-05 06:02 | 36.49020 | -95.53896 | 31721 ft | 377 kts | 283° |
| 2026-05-05 06:03 | 36.50067 | -95.60242 | 31717 ft | 375 kts | 283° |
| 2026-05-05 06:03 | 36.51110 | -95.66589 | 31709 ft | 373 kts | 283° |
| 2026-05-05 06:04 | 36.52141 | -95.72875 | 31699 ft | 371 kts | 283° |
| 2026-05-05 06:04 | 36.53170 | -95.79167 | 31706 ft | 370 kts | 283° |
| 2026-05-05 06:05 | 36.54191 | -95.85425 | 31717 ft | 369 kts | 283° |
| 2026-05-05 06:05 | 36.55206 | -95.91678 | 31719 ft | 367 kts | 284° |
| 2026-05-05 06:06 | 36.56208 | -95.97866 | 31726 ft | 366 kts | 283° |
| 2026-05-05 06:06 | 36.57207 | -96.04071 | 31727 ft | 365 kts | 283° |
| 2026-05-05 06:07 | 36.58201 | -96.10280 | 31727 ft | 364 kts | 283° |
| 2026-05-05 06:07 | 36.59186 | -96.16419 | 31720 ft | 363 kts | 283° |
| 2026-05-05 06:08 | 36.60169 | -96.22577 | 31711 ft | 362 kts | 283° |
| 2026-05-05 06:08 | 36.61146 | -96.28708 | 31698 ft | 360 kts | 283° |
| 2026-05-05 06:09 | 36.62116 | -96.34828 | 31684 ft | 358 kts | 283° |
| 2026-05-05 06:09 | 36.63068 | -96.40871 | 31668 ft | 357 kts | 283° |
| 2026-05-05 06:10 | 36.64021 | -96.46933 | 31658 ft | 357 kts | 283° |
| 2026-05-05 06:10 | 36.64972 | -96.53010 | 31659 ft | 356 kts | 283° |
| 2026-05-05 06:11 | 36.65921 | -96.59069 | 31656 ft | 356 kts | 283° |
| 2026-05-05 06:11 | 36.66864 | -96.65127 | 31655 ft | 356 kts | 282° |
| 2026-05-05 06:12 | 36.67801 | -96.71155 | 31655 ft | 356 kts | 282° |
| 2026-05-05 06:12 | 36.68736 | -96.77211 | 31656 ft | 355 kts | 282° |
| 2026-05-05 06:13 | 36.69668 | -96.83259 | 31659 ft | 355 kts | 282° |
| 2026-05-05 06:13 | 36.70598 | -96.89314 | 31664 ft | 355 kts | 282° |
| 2026-05-05 06:14 | 36.71519 | -96.95335 | 31675 ft | 356 kts | 282° |
| 2026-05-05 06:14 | 36.72444 | -97.01408 | 31676 ft | 356 kts | 282° |
| 2026-05-05 06:15 | 36.73363 | -97.07447 | 31673 ft | 356 kts | 282° |
| 2026-05-05 06:15 | 36.74293 | -97.13517 | 31675 ft | 356 kts | 283° |
| 2026-05-05 06:16 | 36.75846 | -97.19373 | 31676 ft | 356 kts | 291° |
| 2026-05-05 06:16 | 36.77445 | -97.24097 | 31665 ft | 356 kts | 292° |
| 2026-05-05 06:17 | 36.79755 | -97.30682 | 31665 ft | 356 kts | 292° |
| 2026-05-05 06:17 | 36.81740 | -97.36352 | 31663 ft | 356 kts | 291° |
| 2026-05-05 06:18 | 36.83390 | -97.41101 | 31662 ft | 356 kts | 291° |
| 2026-05-05 06:18 | 36.85349 | -97.46766 | 31649 ft | 356 kts | 291° |
| 2026-05-05 06:19 | 36.87313 | -97.52460 | 31642 ft | 357 kts | 291° |
| 2026-05-05 06:19 | 36.89279 | -97.58168 | 31628 ft | 357 kts | 291° |
| 2026-05-05 06:20 | 36.91229 | -97.63834 | 31608 ft | 357 kts | 291° |
| 2026-05-05 06:20 | 36.93187 | -97.69539 | 31593 ft | 356 kts | 291° |
| 2026-05-05 06:21 | 36.95143 | -97.75245 | 31588 ft | 357 kts | 291° |
| 2026-05-05 06:21 | 36.97080 | -97.80908 | 31603 ft | 356 kts | 291° |
| 2026-05-05 06:22 | 36.99028 | -97.86615 | 31609 ft | 357 kts | 291° |
| 2026-05-05 06:22 | 37.00980 | -97.92343 | 31621 ft | 357 kts | 291° |
| 2026-05-05 06:23 | 37.02910 | -97.98022 | 31633 ft | 357 kts | 291° |
| 2026-05-05 06:23 | 37.04852 | -98.03745 | 31641 ft | 357 kts | 291° |
| 2026-05-05 06:24 | 37.06794 | -98.09476 | 31646 ft | 357 kts | 291° |
| 2026-05-05 06:24 | 37.08733 | -98.15209 | 31646 ft | 357 kts | 291° |
| 2026-05-05 06:25 | 37.10673 | -98.20957 | 31649 ft | 357 kts | 291° |
| 2026-05-05 06:25 | 37.12594 | -98.26660 | 31645 ft | 357 kts | 290° |
| 2026-05-05 06:26 | 37.14528 | -98.32413 | 31629 ft | 358 kts | 290° |
| 2026-05-05 06:26 | 37.16460 | -98.38174 | 31617 ft | 358 kts | 290° |
| 2026-05-05 06:27 | 37.19338 | -98.46774 | 31610 ft | 358 kts | 290° |
| 2026-05-05 06:28 | 37.21263 | -98.52536 | 31602 ft | 358 kts | 290° |
| 2026-05-05 06:28 | 37.23185 | -98.58304 | 31603 ft | 358 kts | 290° |
| 2026-05-05 06:29 | 37.25096 | -98.64055 | 31604 ft | 358 kts | 290° |
| 2026-05-05 06:29 | 37.27013 | -98.69831 | 31610 ft | 358 kts | 290° |
| 2026-05-05 06:30 | 37.28930 | -98.75619 | 31615 ft | 358 kts | 290° |
| 2026-05-05 06:30 | 37.30845 | -98.81410 | 31613 ft | 358 kts | 290° |
| 2026-05-05 06:31 | 37.32747 | -98.87175 | 31622 ft | 358 kts | 289° |
| 2026-05-05 06:31 | 37.34655 | -98.92969 | 31624 ft | 359 kts | 289° |
| 2026-05-05 06:32 | 37.36552 | -98.98737 | 31627 ft | 359 kts | 289° |
| 2026-05-05 06:32 | 37.38454 | -99.04541 | 31632 ft | 359 kts | 289° |
| 2026-05-05 06:33 | 37.40357 | -99.10356 | 31628 ft | 359 kts | 289° |
| 2026-05-05 06:33 | 37.42260 | -99.16173 | 31640 ft | 359 kts | 289° |
| 2026-05-05 06:34 | 37.44156 | -99.21988 | 31637 ft | 359 kts | 289° |
| 2026-05-05 06:34 | 37.46040 | -99.27782 | 31642 ft | 359 kts | 289° |
| 2026-05-05 06:35 | 37.47930 | -99.33603 | 31633 ft | 359 kts | 289° |
| 2026-05-05 06:35 | 37.49819 | -99.39431 | 31635 ft | 359 kts | 289° |
| 2026-05-05 06:36 | 37.51703 | -99.45256 | 31638 ft | 359 kts | 289° |
| 2026-05-05 06:36 | 37.53577 | -99.51063 | 31649 ft | 359 kts | 289° |
| 2026-05-05 06:37 | 37.55457 | -99.56901 | 31648 ft | 359 kts | 288° |
| 2026-05-05 06:37 | 37.57338 | -99.62750 | 31668 ft | 359 kts | 288° |
| 2026-05-05 06:38 | 37.59200 | -99.68555 | 31687 ft | 359 kts | 288° |
| 2026-05-05 06:38 | 37.61071 | -99.74401 | 31711 ft | 359 kts | 288° |
| 2026-05-05 06:39 | 37.62942 | -99.80258 | 31733 ft | 359 kts | 288° |
| 2026-05-05 06:39 | 37.64811 | -99.86118 | 31753 ft | 359 kts | 288° |
| 2026-05-05 06:40 | 37.66666 | -99.91944 | 31771 ft | 359 kts | 288° |
| 2026-05-05 06:40 | 37.68529 | -99.97813 | 31776 ft | 359 kts | 288° |
| 2026-05-05 06:41 | 37.70389 | -100.03683 | 31778 ft | 359 kts | 288° |
| 2026-05-05 06:41 | 37.72244 | -100.09549 | 31770 ft | 359 kts | 288° |
| 2026-05-05 06:42 | 37.74087 | -100.15391 | 31753 ft | 359 kts | 288° |
| 2026-05-05 06:42 | 37.75935 | -100.21262 | 31738 ft | 359 kts | 288° |
| 2026-05-05 06:43 | 37.77781 | -100.27138 | 31724 ft | 359 kts | 288° |
| 2026-05-05 06:43 | 37.79622 | -100.33006 | 31706 ft | 359 kts | 288° |
| 2026-05-05 06:44 | 37.81454 | -100.38860 | 31710 ft | 359 kts | 288° |
| 2026-05-05 06:44 | 37.83292 | -100.44746 | 31733 ft | 359 kts | 287° |
| 2026-05-05 06:45 | 37.85126 | -100.50630 | 31753 ft | 359 kts | 287° |
| 2026-05-05 06:45 | 37.86945 | -100.56482 | 31770 ft | 359 kts | 287° |
| 2026-05-05 06:46 | 37.88777 | -100.62382 | 31789 ft | 359 kts | 287° |
| 2026-05-05 06:46 | 37.90590 | -100.68236 | 31788 ft | 359 kts | 287° |
| 2026-05-05 06:47 | 37.92518 | -100.74081 | 31779 ft | 361 kts | 290° |
| 2026-05-05 06:47 | 37.94722 | -100.79808 | 31795 ft | 361 kts | 291° |
| 2026-05-05 06:48 | 37.96926 | -100.85517 | 31781 ft | 360 kts | 291° |
| 2026-05-05 06:48 | 37.99124 | -100.91229 | 31778 ft | 360 kts | 290° |
| 2026-05-05 06:49 | 38.01301 | -100.96902 | 31757 ft | 359 kts | 290° |
| 2026-05-05 06:49 | 38.03488 | -101.02609 | 31747 ft | 359 kts | 290° |
| 2026-05-05 06:50 | 38.05671 | -101.08319 | 31737 ft | 359 kts | 290° |
| 2026-05-05 06:50 | 38.07839 | -101.14000 | 31727 ft | 359 kts | 290° |
| 2026-05-05 06:51 | 38.10016 | -101.19714 | 31727 ft | 359 kts | 290° |
| 2026-05-05 06:51 | 38.12193 | -101.25438 | 31724 ft | 359 kts | 290° |
| 2026-05-05 06:52 | 38.14349 | -101.31121 | 31721 ft | 359 kts | 290° |
| 2026-05-05 06:52 | 38.16516 | -101.36843 | 31727 ft | 359 kts | 290° |
| 2026-05-05 06:53 | 38.18684 | -101.42573 | 31725 ft | 360 kts | 290° |
| 2026-05-05 06:53 | 38.21228 | -101.48108 | 31726 ft | 364 kts | 295° |
| 2026-05-05 06:54 | 38.23961 | -101.53553 | 31728 ft | 364 kts | 295° |
| 2026-05-05 06:54 | 38.26667 | -101.58959 | 31728 ft | 365 kts | 295° |
| 2026-05-05 06:55 | 38.29390 | -101.64413 | 31728 ft | 365 kts | 295° |
| 2026-05-05 06:55 | 38.32112 | -101.69877 | 31732 ft | 365 kts | 295° |
| 2026-05-05 06:56 | 38.34834 | -101.75350 | 31739 ft | 365 kts | 295° |
| 2026-05-05 06:56 | 38.37547 | -101.80814 | 31734 ft | 365 kts | 295° |
| 2026-05-05 06:57 | 38.40260 | -101.86287 | 31737 ft | 365 kts | 295° |
| 2026-05-05 06:57 | 38.42947 | -101.91718 | 31740 ft | 364 kts | 295° |
| 2026-05-05 06:58 | 38.45648 | -101.97186 | 31738 ft | 364 kts | 295° |
| 2026-05-05 06:58 | 38.48347 | -102.02660 | 31739 ft | 364 kts | 295° |
| 2026-05-05 06:59 | 38.51049 | -102.08148 | 31743 ft | 364 kts | 295° |
| 2026-05-05 06:59 | 38.53734 | -102.13612 | 31741 ft | 364 kts | 295° |
| 2026-05-05 07:00 | 38.56421 | -102.19090 | 31745 ft | 364 kts | 295° |
| 2026-05-05 07:00 | 38.59103 | -102.24581 | 31746 ft | 364 kts | 295° |
| 2026-05-05 07:01 | 38.61783 | -102.30083 | 31746 ft | 364 kts | 295° |
| 2026-05-05 07:01 | 38.64447 | -102.35559 | 31751 ft | 364 kts | 295° |
| 2026-05-05 07:02 | 38.67125 | -102.41079 | 31751 ft | 365 kts | 295° |
| 2026-05-05 07:02 | 38.69803 | -102.46604 | 31753 ft | 365 kts | 295° |
| 2026-05-05 07:03 | 38.72478 | -102.52135 | 31755 ft | 365 kts | 295° |
| 2026-05-05 07:03 | 38.75156 | -102.57680 | 31760 ft | 365 kts | 294° |
| 2026-05-05 07:04 | 38.77815 | -102.63194 | 31760 ft | 365 kts | 294° |
| 2026-05-05 07:04 | 38.80484 | -102.68739 | 31759 ft | 365 kts | 294° |
| 2026-05-05 07:05 | 38.82699 | -102.73350 | 31760 ft | 365 kts | 294° |
| 2026-05-05 07:05 | 38.85357 | -102.78890 | 31757 ft | 364 kts | 294° |
| 2026-05-05 07:06 | 38.88440 | -102.85328 | 31757 ft | 364 kts | 294° |
| 2026-05-05 07:06 | 38.90641 | -102.89934 | 31758 ft | 363 kts | 294° |
| 2026-05-05 07:07 | 38.93281 | -102.95464 | 31763 ft | 363 kts | 294° |
| 2026-05-05 07:07 | 38.95931 | -103.00992 | 31754 ft | 363 kts | 294° |
| 2026-05-05 07:08 | 38.98606 | -103.06517 | 31756 ft | 363 kts | 294° |
| 2026-05-05 07:08 | 39.01277 | -103.12040 | 31758 ft | 363 kts | 294° |
| 2026-05-05 07:09 | 39.03929 | -103.17538 | 31760 ft | 364 kts | 294° |
| 2026-05-05 07:09 | 39.06575 | -103.23086 | 31759 ft | 364 kts | 294° |
| 2026-05-05 07:10 | 39.09210 | -103.28640 | 31774 ft | 364 kts | 294° |
| 2026-05-05 07:10 | 39.11854 | -103.34221 | 31813 ft | 364 kts | 294° |
| 2026-05-05 07:11 | 39.14484 | -103.39784 | 31857 ft | 365 kts | 294° |
| 2026-05-05 07:11 | 39.17126 | -103.45379 | 31897 ft | 365 kts | 294° |
| 2026-05-05 07:12 | 39.19759 | -103.50972 | 31942 ft | 371 kts | 294° |
| 2026-05-05 07:12 | 39.22475 | -103.56750 | 31982 ft | 380 kts | 294° |
| 2026-05-05 07:13 | 39.25222 | -103.62593 | 31984 ft | 381 kts | 294° |
| 2026-05-05 07:13 | 39.27969 | -103.68448 | 31969 ft | 381 kts | 294° |
| 2026-05-05 07:13 | 39.29407 | -103.71346 | 31831 ft | 383 kts | 296° |
| 2026-05-05 07:14 | 39.30893 | -103.74164 | 31102 ft | 379 kts | 297° |
| 2026-05-05 07:14 | 39.32394 | -103.76991 | 29885 ft | 383 kts | 297° |
| 2026-05-05 07:14 | 39.33894 | -103.79826 | 28185 ft | 393 kts | 298° |
| 2026-05-05 07:14 | 39.35463 | -103.82803 | 26243 ft | 409 kts | 300° |
| 2026-05-05 07:15 | 39.37108 | -103.85922 | 24335 ft | 428 kts | 301° |
| 2026-05-05 07:15 | 39.38818 | -103.89160 | 22614 ft | 439 kts | 302° |
| 2026-05-05 07:15 | 39.40541 | -103.92414 | 21520 ft | 431 kts | 302° |
| 2026-05-05 07:15 | 39.42182 | -103.95515 | 21263 ft | 405 kts | 302° |
| 2026-05-05 07:16 | 39.43594 | -103.98581 | 21074 ft | 387 kts | 291° |
| 2026-05-05 07:16 | 39.44190 | -104.01841 | 20792 ft | 372 kts | 272° |
| 2026-05-05 07:16 | 39.44122 | -104.05115 | 20521 ft | 357 kts | 266° |
| 2026-05-05 07:16 | 39.43955 | -104.08251 | 20260 ft | 343 kts | 266° |
| 2026-05-05 07:17 | 39.43809 | -104.11272 | 20017 ft | 330 kts | 266° |
| 2026-05-05 07:17 | 39.43683 | -104.14189 | 19776 ft | 318 kts | 267° |
| 2026-05-05 07:17 | 39.43570 | -104.17024 | 19272 ft | 313 kts | 267° |
| 2026-05-05 07:17 | 39.43463 | -104.19842 | 18669 ft | 312 kts | 267° |
| 2026-05-05 07:18 | 39.43360 | -104.22647 | 18126 ft | 310 kts | 267° |
| 2026-05-05 07:18 | 39.43258 | -104.25418 | 17521 ft | 308 kts | 267° |
| 2026-05-05 07:18 | 39.43159 | -104.28158 | 17087 ft | 301 kts | 267° |
| 2026-05-05 07:18 | 39.43060 | -104.30862 | 16723 ft | 301 kts | 267° |
| 2026-05-05 07:19 | 39.42961 | -104.33562 | 16357 ft | 299 kts | 267° |
| 2026-05-05 07:19 | 39.42865 | -104.36201 | 16036 ft | 295 kts | 267° |
| 2026-05-05 07:19 | 39.42769 | -104.38829 | 15609 ft | 291 kts | 267° |
| 2026-05-05 07:19 | 39.42672 | -104.41446 | 15020 ft | 290 kts | 267° |
| 2026-05-05 07:20 | 39.42580 | -104.44051 | 14676 ft | 290 kts | 268° |
| 2026-05-05 07:20 | 39.42491 | -104.46662 | 14458 ft | 290 kts | 268° |
| 2026-05-05 07:20 | 39.42404 | -104.49248 | 14182 ft | 286 kts | 268° |
| 2026-05-05 07:20 | 39.42321 | -104.51784 | 13957 ft | 286 kts | 268° |
| 2026-05-05 07:21 | 39.42247 | -104.54344 | 13669 ft | 282 kts | 268° |
| 2026-05-05 07:21 | 39.42177 | -104.56896 | 13422 ft | 285 kts | 268° |
| 2026-05-05 07:21 | 39.42106 | -104.59475 | 13165 ft | 286 kts | 268° |
| 2026-05-05 07:21 | 39.42045 | -104.62034 | 12898 ft | 285 kts | 270° |
| 2026-05-05 07:22 | 39.42295 | -104.64582 | 12645 ft | 288 kts | 283° |
| 2026-05-05 07:22 | 39.43130 | -104.66947 | 12393 ft | 292 kts | 303° |
| 2026-05-05 07:22 | 39.44587 | -104.68728 | 12145 ft | 297 kts | 328° |
| 2026-05-05 07:22 | 39.46611 | -104.69340 | 12142 ft | 305 kts | 0° |
| 2026-05-05 07:23 | 39.48635 | -104.68503 | 12151 ft | 311 kts | 32° |
| 2026-05-05 07:23 | 39.50232 | -104.66623 | 11963 ft | 311 kts | 44° |
| 2026-05-05 07:23 | 39.52030 | -104.65133 | 11510 ft | 307 kts | 16° |
| 2026-05-05 07:23 | 39.54127 | -104.64982 | 11261 ft | 302 kts | 347° |
| 2026-05-05 07:24 | 39.56123 | -104.65658 | 11004 ft | 300 kts | 343° |
| 2026-05-05 07:24 | 39.58167 | -104.66219 | 10460 ft | 301 kts | 351° |
| 2026-05-05 07:24 | 39.60266 | -104.66364 | 10058 ft | 302 kts | 0° |
| 2026-05-05 07:24 | 39.62367 | -104.66303 | 9530 ft | 301 kts | 1° |
| 2026-05-05 07:25 | 39.64452 | -104.66250 | 9073 ft | 299 kts | 0° |
| 2026-05-05 07:25 | 39.66509 | -104.66238 | 8654 ft | 291 kts | 0° |
| 2026-05-05 07:25 | 39.68515 | -104.66227 | 8281 ft | 284 kts | 0° |
| 2026-05-05 07:25 | 39.70452 | -104.66202 | 7919 ft | 271 kts | 1° |
| 2026-05-05 07:26 | 39.72278 | -104.66178 | 7573 ft | 252 kts | 1° |
| 2026-05-05 07:26 | 39.73968 | -104.66160 | 7257 ft | 234 kts | 1° |
| 2026-05-05 07:26 | 39.75528 | -104.66142 | 6987 ft | 215 kts | 2° |
| 2026-05-05 07:26 | 39.76973 | -104.66125 | 6717 ft | 201 kts | 2° |
| 2026-05-05 07:27 | 39.78329 | -104.66108 | 6478 ft | 195 kts | 2° |
| 2026-05-05 07:27 | 39.79677 | -104.66092 | 6192 ft | 186 kts | 2° |
| 2026-05-05 07:27 | 39.80931 | -104.66077 | 5925 ft | 173 kts | 1° |
| 2026-05-05 07:27 | 39.82066 | -104.66051 | 5631 ft | 158 kts | 1° |
| 2026-05-05 07:28 | 39.83119 | -104.66031 | 5452 ft | 143 kts | 0° |
| 2026-05-05 07:28 | 39.84002 | -104.66031 | 5420 ft | 102 kts | 3° |
| 2026-05-05 07:28 | 39.84452 | -104.66032 | 5410 ft | 22 kts | 360° |
| 2026-05-05 07:28 | 39.84518 | -104.66033 | 5415 ft | 17 kts | 360° |
| 2026-05-05 07:29 | 39.84682 | -104.66052 | 5407 ft | 27 kts | 349° |
| 2026-05-05 07:29 | 39.84857 | -104.66122 | 5403 ft | 26 kts | 333° |
| 2026-05-05 07:29 | 39.84906 | -104.66166 | 5396 ft | 0 kts | 318° |
| 2026-05-05 07:29 | 39.84909 | -104.66169 | 5396 ft | 1 kts | 318° |
| 2026-05-05 07:30 | 39.84915 | -104.66177 | 5396 ft | 1 kts | 318° |
| 2026-05-05 07:30 | 39.84931 | -104.66196 | 5401 ft | 1 kts | 319° |
| 2026-05-05 07:30 | 39.84937 | -104.66203 | 5404 ft | 1 kts | 315° |
| 2026-05-05 07:31 | 39.84937 | -104.66228 | 5400 ft | 4 kts | 249° |
| 2026-05-05 07:31 | 39.84895 | -104.66249 | 5408 ft | 10 kts | 189° |
| 2026-05-05 07:31 | 39.84810 | -104.66249 | 5406 ft | 12 kts | 176° |
| 2026-05-05 07:31 | 39.84738 | -104.66246 | 5410 ft | 9 kts | 179° |
| 2026-05-05 07:32 | 39.84676 | -104.66245 | 5410 ft | 11 kts | 179° |
| 2026-05-05 07:32 | 39.84577 | -104.66249 | 5405 ft | 17 kts | 180° |
| 2026-05-05 07:32 | 39.84443 | -104.66252 | 5413 ft | 20 kts | 183° |
| 2026-05-05 07:32 | 39.84299 | -104.66253 | 5424 ft | 22 kts | 180° |
| 2026-05-05 07:33 | 39.84152 | -104.66252 | 5418 ft | 20 kts | 180° |
| 2026-05-05 07:33 | 39.84011 | -104.66254 | 5418 ft | 21 kts | 180° |
| 2026-05-05 07:33 | 39.83868 | -104.66256 | 5420 ft | 21 kts | 184° |
| 2026-05-05 07:33 | 39.83719 | -104.66258 | 5420 ft | 22 kts | 180° |
| 2026-05-05 07:34 | 39.83566 | -104.66263 | 5433 ft | 22 kts | 180° |
| 2026-05-05 07:34 | 39.83418 | -104.66264 | 5435 ft | 21 kts | 181° |
| 2026-05-05 07:34 | 39.83269 | -104.66264 | 5441 ft | 21 kts | 180° |
| 2026-05-05 07:34 | 39.83126 | -104.66264 | 5447 ft | 20 kts | 181° |
| 2026-05-05 07:35 | 39.83005 | -104.66266 | 5448 ft | 9 kts | 178° |
| 2026-05-05 07:35 | 39.82954 | -104.66277 | 5448 ft | 6 kts | 213° |
| 2026-05-05 07:35 | 39.82933 | -104.66321 | 5447 ft | 6 kts | 257° |
| 2026-05-05 07:35 | 39.82933 | -104.66385 | 5446 ft | 9 kts | 270° |
| 2026-05-05 07:36 | 39.82934 | -104.66492 | 5444 ft | 15 kts | 270° |
| 2026-05-05 07:36 | 39.82935 | -104.66660 | 5438 ft | 23 kts | 272° |
| 2026-05-05 07:36 | 39.82939 | -104.66896 | 5411 ft | 29 kts | 270° |
| 2026-05-05 07:36 | 39.82958 | -104.67153 | 5399 ft | 29 kts | 288° |
| 2026-05-05 07:37 | 39.83004 | -104.67304 | 5393 ft | 5 kts | 285° |
| 2026-05-05 07:37 | 39.83008 | -104.67347 | 5391 ft | 5 kts | 268° |
| 2026-05-05 07:37 | 39.83007 | -104.67398 | 5393 ft | 8 kts | 267° |
| 2026-05-05 07:37 | 39.83013 | -104.67490 | 5387 ft | 10 kts | 310° |
| 2026-05-05 07:38 | 39.83044 | -104.67492 | 5387 ft | 2 kts | 6° |
| 2026-05-05 07:38 | 39.83049 | -104.67491 | 5390 ft | 1 kts | 6° |
| 2026-05-05 07:38 | 39.83063 | -104.67490 | 5390 ft | 2 kts | 4° |
| 2026-05-05 07:38 | 39.83086 | -104.67488 | 5390 ft | 4 kts | 3° |
| 2026-05-05 07:39 | 39.83091 | -104.67488 | 5389 ft | 0 kts | 3° |
| 2026-05-05 07:39 | 39.83095 | -104.67487 | 5389 ft | 2 kts | 3° |
| 2026-05-05 07:39 | 39.83096 | -104.67487 | 5389 ft | 0 kts | 3° |